sensor_id;sensor_type;location;lat;lon;timestamp;P1;durP1;ratioP1;P2;durP2;ratioP2
34236;SDS011;20501;45.956;13.632;2023-11-18T00:01:46;6.47;;;2.13;;
34236;SDS011;20501;45.956;13.632;2023-11-18T00:04:11;3.60;;;2.13;;
34236;SDS011;20501;45.956;13.632;2023-11-18T00:06:43;6.80;;;2.30;;
34236;SDS011;20501;45.956;13.632;2023-11-18T00:09:10;5.22;;;2.60;;
34236;SDS011;20501;45.956;13.632;2023-11-18T00:11:42;4.57;;;2.00;;
34236;SDS011;20501;45.956;13.632;2023-11-18T00:14:09;5.25;;;2.13;;
34236;SDS011;20501;45.956;13.632;2023-11-18T00:16:36;4.70;;;1.80;;
34236;SDS011;20501;45.956;13.632;2023-11-18T00:19:03;3.65;;;1.83;;
34236;SDS011;20501;45.956;13.632;2023-11-18T00:21:30;3.03;;;1.50;;
34236;SDS011;20501;45.956;13.632;2023-11-18T00:23:56;3.13;;;1.58;;
34236;SDS011;20501;45.956;13.632;2023-11-18T00:26:21;4.15;;;1.58;;
34236;SDS011;20501;45.956;13.632;2023-11-18T00:28:47;4.20;;;1.85;;
34236;SDS011;20501;45.956;13.632;2023-11-18T00:31:13;2.85;;;1.45;;
34236;SDS011;20501;45.956;13.632;2023-11-18T00:33:39;2.85;;;1.50;;
34236;SDS011;20501;45.956;13.632;2023-11-18T00:36:05;3.15;;;1.50;;
34236;SDS011;20501;45.956;13.632;2023-11-18T00:38:31;3.17;;;1.55;;
34236;SDS011;20501;45.956;13.632;2023-11-18T00:40:57;2.60;;;1.63;;
34236;SDS011;20501;45.956;13.632;2023-11-18T00:43:22;2.58;;;1.60;;
34236;SDS011;20501;45.956;13.632;2023-11-18T00:45:48;4.50;;;2.15;;
34236;SDS011;20501;45.956;13.632;2023-11-18T00:48:13;7.13;;;1.67;;
34236;SDS011;20501;45.956;13.632;2023-11-18T00:50:39;6.55;;;1.50;;
34236;SDS011;20501;45.956;13.632;2023-11-18T00:53:05;3.85;;;1.80;;
34236;SDS011;20501;45.956;13.632;2023-11-18T00:55:31;5.80;;;1.98;;
34236;SDS011;20501;45.956;13.632;2023-11-18T00:57:57;2.90;;;1.70;;
34236;SDS011;20501;45.956;13.632;2023-11-18T01:00:23;4.20;;;1.85;;
34236;SDS011;20501;45.956;13.632;2023-11-18T01:02:51;5.30;;;1.60;;
34236;SDS011;20501;45.956;13.632;2023-11-18T01:05:18;4.93;;;1.80;;
34236;SDS011;20501;45.956;13.632;2023-11-18T01:07:44;2.58;;;1.67;;
34236;SDS011;20501;45.956;13.632;2023-11-18T01:10:10;3.13;;;1.63;;
34236;SDS011;20501;45.956;13.632;2023-11-18T01:12:36;4.53;;;1.73;;
34236;SDS011;20501;45.956;13.632;2023-11-18T01:15:02;3.58;;;1.83;;
34236;SDS011;20501;45.956;13.632;2023-11-18T01:17:29;5.70;;;2.50;;
34236;SDS011;20501;45.956;13.632;2023-11-18T01:19:56;6.68;;;2.42;;
34236;SDS011;20501;45.956;13.632;2023-11-18T01:22:22;4.72;;;2.22;;
34236;SDS011;20501;45.956;13.632;2023-11-18T01:24:47;4.15;;;2.20;;
34236;SDS011;20501;45.956;13.632;2023-11-18T01:27:13;4.95;;;2.40;;
34236;SDS011;20501;45.956;13.632;2023-11-18T01:29:38;13.20;;;1.80;;
34236;SDS011;20501;45.956;13.632;2023-11-18T01:32:04;3.28;;;1.80;;
34236;SDS011;20501;45.956;13.632;2023-11-18T01:34:35;3.83;;;2.13;;
34236;SDS011;20501;45.956;13.632;2023-11-18T01:37:01;6.13;;;1.80;;
34236;SDS011;20501;45.956;13.632;2023-11-18T01:39:26;4.10;;;1.70;;
34236;SDS011;20501;45.956;13.632;2023-11-18T01:41:52;2.33;;;1.45;;
34236;SDS011;20501;45.956;13.632;2023-11-18T01:44:18;2.38;;;1.45;;
34236;SDS011;20501;45.956;13.632;2023-11-18T01:46:44;2.28;;;1.38;;
34236;SDS011;20501;45.956;13.632;2023-11-18T01:49:13;2.90;;;1.60;;
34236;SDS011;20501;45.956;13.632;2023-11-18T01:51:42;2.67;;;1.50;;
34236;SDS011;20501;45.956;13.632;2023-11-18T01:54:11;2.13;;;1.45;;
34236;SDS011;20501;45.956;13.632;2023-11-18T01:56:41;5.80;;;1.73;;
34236;SDS011;20501;45.956;13.632;2023-11-18T01:59:09;5.25;;;1.83;;
34236;SDS011;20501;45.956;13.632;2023-11-18T02:01:35;4.88;;;1.80;;
34236;SDS011;20501;45.956;13.632;2023-11-18T02:04:01;1.92;;;1.52;;
34236;SDS011;20501;45.956;13.632;2023-11-18T02:06:28;3.47;;;1.48;;
34236;SDS011;20501;45.956;13.632;2023-11-18T02:08:53;7.40;;;2.17;;
34236;SDS011;20501;45.956;13.632;2023-11-18T02:11:28;4.55;;;1.77;;
34236;SDS011;20501;45.956;13.632;2023-11-18T02:16:27;6.68;;;1.42;;
34236;SDS011;20501;45.956;13.632;2023-11-18T02:18:53;10.65;;;1.75;;
34236;SDS011;20501;45.956;13.632;2023-11-18T02:21:20;1.67;;;1.42;;
34236;SDS011;20501;45.956;13.632;2023-11-18T02:23:48;5.90;;;1.40;;
34236;SDS011;20501;45.956;13.632;2023-11-18T02:26:21;3.95;;;1.48;;
34236;SDS011;20501;45.956;13.632;2023-11-18T02:28:49;3.65;;;1.63;;
34236;SDS011;20501;45.956;13.632;2023-11-18T02:31:15;4.95;;;1.55;;
34236;SDS011;20501;45.956;13.632;2023-11-18T02:33:49;2.92;;;1.50;;
34236;SDS011;20501;45.956;13.632;2023-11-18T02:36:41;2.80;;;1.17;;
34236;SDS011;20501;45.956;13.632;2023-11-18T02:39:17;4.55;;;1.77;;
34236;SDS011;20501;45.956;13.632;2023-11-18T02:41:47;2.80;;;1.50;;
34236;SDS011;20501;45.956;13.632;2023-11-18T02:44:16;2.28;;;1.52;;
34236;SDS011;20501;45.956;13.632;2023-11-18T02:46:43;3.25;;;1.55;;
34236;SDS011;20501;45.956;13.632;2023-11-18T02:49:09;2.05;;;1.50;;
34236;SDS011;20501;45.956;13.632;2023-11-18T02:51:35;2.67;;;1.55;;
34236;SDS011;20501;45.956;13.632;2023-11-18T02:54:07;2.70;;;1.67;;
34236;SDS011;20501;45.956;13.632;2023-11-18T02:56:35;3.55;;;1.73;;
34236;SDS011;20501;45.956;13.632;2023-11-18T02:59:01;2.83;;;1.47;;
34236;SDS011;20501;45.956;13.632;2023-11-18T03:01:30;4.82;;;1.45;;
34236;SDS011;20501;45.956;13.632;2023-11-18T03:03:56;4.03;;;1.55;;
34236;SDS011;20501;45.956;13.632;2023-11-18T03:06:21;3.08;;;1.30;;
34236;SDS011;20501;45.956;13.632;2023-11-18T03:08:47;4.38;;;1.27;;
34236;SDS011;20501;45.956;13.632;2023-11-18T03:11:12;2.45;;;1.17;;
34236;SDS011;20501;45.956;13.632;2023-11-18T03:13:38;2.80;;;1.20;;
34236;SDS011;20501;45.956;13.632;2023-11-18T03:16:07;5.90;;;1.30;;
34236;SDS011;20501;45.956;13.632;2023-11-18T03:18:41;2.63;;;1.75;;
34236;SDS011;20501;45.956;13.632;2023-11-18T03:21:13;1.63;;;1.17;;
34236;SDS011;20501;45.956;13.632;2023-11-18T03:23:39;2.67;;;1.20;;
34236;SDS011;20501;45.956;13.632;2023-11-18T03:26:08;1.38;;;1.10;;
34236;SDS011;20501;45.956;13.632;2023-11-18T03:28:35;2.20;;;1.23;;
34236;SDS011;20501;45.956;13.632;2023-11-18T03:31:02;3.37;;;1.60;;
34236;SDS011;20501;45.956;13.632;2023-11-18T03:33:29;3.35;;;1.38;;
34236;SDS011;20501;45.956;13.632;2023-11-18T03:35:54;4.28;;;1.80;;
34236;SDS011;20501;45.956;13.632;2023-11-18T03:38:21;3.63;;;1.90;;
34236;SDS011;20501;45.956;13.632;2023-11-18T03:40:47;4.47;;;1.92;;
34236;SDS011;20501;45.956;13.632;2023-11-18T03:43:12;2.47;;;1.73;;
34236;SDS011;20501;45.956;13.632;2023-11-18T03:45:39;3.15;;;2.00;;
34236;SDS011;20501;45.956;13.632;2023-11-18T03:48:05;4.65;;;2.08;;
34236;SDS011;20501;45.956;13.632;2023-11-18T03:50:31;7.68;;;3.33;;
34236;SDS011;20501;45.956;13.632;2023-11-18T03:52:57;14.88;;;5.15;;
34236;SDS011;20501;45.956;13.632;2023-11-18T03:55:23;3.90;;;2.33;;
34236;SDS011;20501;45.956;13.632;2023-11-18T03:57:49;5.00;;;1.73;;
34236;SDS011;20501;45.956;13.632;2023-11-18T04:00:18;4.80;;;1.52;;
34236;SDS011;20501;45.956;13.632;2023-11-18T04:02:45;2.53;;;1.33;;
34236;SDS011;20501;45.956;13.632;2023-11-18T04:05:13;2.72;;;1.35;;
34236;SDS011;20501;45.956;13.632;2023-11-18T04:07:38;3.10;;;1.23;;
34236;SDS011;20501;45.956;13.632;2023-11-18T04:10:06;7.32;;;1.48;;
34236;SDS011;20501;45.956;13.632;2023-11-18T04:12:36;2.58;;;1.23;;
34236;SDS011;20501;45.956;13.632;2023-11-18T04:15:03;2.80;;;1.65;;
34236;SDS011;20501;45.956;13.632;2023-11-18T04:17:30;9.82;;;1.42;;
34236;SDS011;20501;45.956;13.632;2023-11-18T04:19:55;3.67;;;1.38;;
34236;SDS011;20501;45.956;13.632;2023-11-18T04:22:21;3.08;;;1.80;;
34236;SDS011;20501;45.956;13.632;2023-11-18T04:24:47;2.55;;;1.52;;
34236;SDS011;20501;45.956;13.632;2023-11-18T04:27:12;3.72;;;1.30;;
34236;SDS011;20501;45.956;13.632;2023-11-18T04:29:38;4.43;;;1.50;;
34236;SDS011;20501;45.956;13.632;2023-11-18T04:32:05;3.88;;;1.88;;
34236;SDS011;20501;45.956;13.632;2023-11-18T04:34:35;3.80;;;1.90;;
34236;SDS011;20501;45.956;13.632;2023-11-18T04:37:03;4.25;;;2.05;;
34236;SDS011;20501;45.956;13.632;2023-11-18T04:39:33;4.05;;;1.90;;
34236;SDS011;20501;45.956;13.632;2023-11-18T04:41:59;5.72;;;2.28;;
34236;SDS011;20501;45.956;13.632;2023-11-18T04:44:26;4.40;;;1.90;;
34236;SDS011;20501;45.956;13.632;2023-11-18T04:46:52;5.20;;;2.30;;
34236;SDS011;20501;45.956;13.632;2023-11-18T04:49:17;8.95;;;2.30;;
34236;SDS011;20501;45.956;13.632;2023-11-18T04:51:43;5.47;;;1.63;;
34236;SDS011;20501;45.956;13.632;2023-11-18T04:54:08;4.03;;;1.45;;
34236;SDS011;20501;45.956;13.632;2023-11-18T04:56:34;3.25;;;1.40;;
34236;SDS011;20501;45.956;13.632;2023-11-18T04:59:03;6.88;;;2.08;;
34236;SDS011;20501;45.956;13.632;2023-11-18T05:01:32;5.18;;;1.65;;
34236;SDS011;20501;45.956;13.632;2023-11-18T05:03:58;4.85;;;1.63;;
34236;SDS011;20501;45.956;13.632;2023-11-18T05:06:24;3.58;;;1.50;;
34236;SDS011;20501;45.956;13.632;2023-11-18T05:08:51;3.25;;;1.63;;
34236;SDS011;20501;45.956;13.632;2023-11-18T05:11:16;4.38;;;1.75;;
34236;SDS011;20501;45.956;13.632;2023-11-18T05:13:42;3.83;;;2.13;;
34236;SDS011;20501;45.956;13.632;2023-11-18T05:16:07;4.18;;;1.75;;
34236;SDS011;20501;45.956;13.632;2023-11-18T05:18:33;6.40;;;2.15;;
34236;SDS011;20501;45.956;13.632;2023-11-18T05:21:00;2.83;;;1.67;;
34236;SDS011;20501;45.956;13.632;2023-11-18T05:23:27;4.72;;;2.05;;
34236;SDS011;20501;45.956;13.632;2023-11-18T05:25:54;7.13;;;1.73;;
34236;SDS011;20501;45.956;13.632;2023-11-18T05:28:21;6.78;;;2.00;;
34236;SDS011;20501;45.956;13.632;2023-11-18T05:30:47;3.65;;;1.45;;
34236;SDS011;20501;45.956;13.632;2023-11-18T05:33:12;5.95;;;1.88;;
34236;SDS011;20501;45.956;13.632;2023-11-18T05:35:43;4.38;;;2.10;;
34236;SDS011;20501;45.956;13.632;2023-11-18T05:38:15;7.93;;;1.92;;
34236;SDS011;20501;45.956;13.632;2023-11-18T05:40:43;4.68;;;1.88;;
34236;SDS011;20501;45.956;13.632;2023-11-18T05:43:19;4.05;;;1.90;;
34236;SDS011;20501;45.956;13.632;2023-11-18T05:48:31;13.38;;;2.30;;
34236;SDS011;20501;45.956;13.632;2023-11-18T05:50:57;1.88;;;1.48;;
34236;SDS011;20501;45.956;13.632;2023-11-18T05:53:22;2.28;;;1.50;;
34236;SDS011;20501;45.956;13.632;2023-11-18T05:55:47;4.78;;;1.67;;
34236;SDS011;20501;45.956;13.632;2023-11-18T05:58:13;3.85;;;1.85;;
34236;SDS011;20501;45.956;13.632;2023-11-18T06:00:38;3.58;;;1.90;;
34236;SDS011;20501;45.956;13.632;2023-11-18T06:03:04;2.67;;;1.48;;
34236;SDS011;20501;45.956;13.632;2023-11-18T06:05:30;4.50;;;2.00;;
34236;SDS011;20501;45.956;13.632;2023-11-18T06:07:59;6.28;;;2.40;;
34236;SDS011;20501;45.956;13.632;2023-11-18T06:10:25;5.20;;;2.00;;
34236;SDS011;20501;45.956;13.632;2023-11-18T06:12:51;9.13;;;2.83;;
34236;SDS011;20501;45.956;13.632;2023-11-18T06:15:16;5.88;;;2.58;;
34236;SDS011;20501;45.956;13.632;2023-11-18T06:17:44;6.38;;;2.40;;
34236;SDS011;20501;45.956;13.632;2023-11-18T06:20:10;8.77;;;2.97;;
34236;SDS011;20501;45.956;13.632;2023-11-18T06:22:39;6.78;;;3.22;;
34236;SDS011;20501;45.956;13.632;2023-11-18T06:25:05;3.65;;;1.98;;
34236;SDS011;20501;45.956;13.632;2023-11-18T06:27:32;7.00;;;2.85;;
34236;SDS011;20501;45.956;13.632;2023-11-18T06:29:58;3.72;;;1.83;;
34236;SDS011;20501;45.956;13.632;2023-11-18T06:32:23;4.13;;;1.60;;
34236;SDS011;20501;45.956;13.632;2023-11-18T06:34:51;13.77;;;2.08;;
34236;SDS011;20501;45.956;13.632;2023-11-18T06:37:17;4.27;;;2.00;;
34236;SDS011;20501;45.956;13.632;2023-11-18T06:39:42;11.70;;;3.38;;
34236;SDS011;20501;45.956;13.632;2023-11-18T06:42:10;4.15;;;2.05;;
34236;SDS011;20501;45.956;13.632;2023-11-18T06:44:37;4.07;;;1.98;;
34236;SDS011;20501;45.956;13.632;2023-11-18T06:47:03;6.43;;;2.10;;
34236;SDS011;20501;45.956;13.632;2023-11-18T06:49:30;3.97;;;2.10;;
34236;SDS011;20501;45.956;13.632;2023-11-18T06:51:59;7.90;;;3.15;;
34236;SDS011;20501;45.956;13.632;2023-11-18T06:54:28;5.57;;;2.00;;
34236;SDS011;20501;45.956;13.632;2023-11-18T06:56:55;5.60;;;2.08;;
34236;SDS011;20501;45.956;13.632;2023-11-18T06:59:21;5.88;;;2.20;;
34236;SDS011;20501;45.956;13.632;2023-11-18T07:01:46;8.48;;;2.63;;
34236;SDS011;20501;45.956;13.632;2023-11-18T07:04:12;7.30;;;1.95;;
34236;SDS011;20501;45.956;13.632;2023-11-18T07:09:07;7.80;;;1.83;;
34236;SDS011;20501;45.956;13.632;2023-11-18T07:11:43;6.68;;;2.05;;
34236;SDS011;20501;45.956;13.632;2023-11-18T07:14:12;4.20;;;1.77;;
34236;SDS011;20501;45.956;13.632;2023-11-18T07:16:38;4.57;;;2.65;;
34236;SDS011;20501;45.956;13.632;2023-11-18T07:19:04;8.65;;;2.40;;
34236;SDS011;20501;45.956;13.632;2023-11-18T07:21:30;6.13;;;2.60;;
34236;SDS011;20501;45.956;13.632;2023-11-18T07:23:55;8.00;;;1.88;;
34236;SDS011;20501;45.956;13.632;2023-11-18T07:26:21;4.68;;;2.58;;
34236;SDS011;20501;45.956;13.632;2023-11-18T07:31:14;6.18;;;2.60;;
34236;SDS011;20501;45.956;13.632;2023-11-18T07:33:39;7.50;;;2.08;;
34236;SDS011;20501;45.956;13.632;2023-11-18T07:36:05;2.97;;;2.00;;
34236;SDS011;20501;45.956;13.632;2023-11-18T07:38:36;5.43;;;2.70;;
34236;SDS011;20501;45.956;13.632;2023-11-18T07:41:01;4.35;;;2.15;;
34236;SDS011;20501;45.956;13.632;2023-11-18T07:43:27;5.78;;;2.80;;
34236;SDS011;20501;45.956;13.632;2023-11-18T07:45:53;5.43;;;2.63;;
34236;SDS011;20501;45.956;13.632;2023-11-18T07:48:19;4.05;;;2.38;;
34236;SDS011;20501;45.956;13.632;2023-11-18T07:50:45;3.70;;;2.00;;
34236;SDS011;20501;45.956;13.632;2023-11-18T07:53:14;2.85;;;1.90;;
34236;SDS011;20501;45.956;13.632;2023-11-18T07:55:41;3.45;;;2.00;;
34236;SDS011;20501;45.956;13.632;2023-11-18T07:58:07;5.90;;;2.20;;
34236;SDS011;20501;45.956;13.632;2023-11-18T08:00:42;5.38;;;2.58;;
34236;SDS011;20501;45.956;13.632;2023-11-18T08:03:10;2.05;;;1.30;;
34236;SDS011;20501;45.956;13.632;2023-11-18T08:05:42;2.50;;;1.63;;
34236;SDS011;20501;45.956;13.632;2023-11-18T08:08:12;2.88;;;1.70;;
34236;SDS011;20501;45.956;13.632;2023-11-18T08:10:41;5.60;;;2.10;;
34236;SDS011;20501;45.956;13.632;2023-11-18T08:15:34;3.88;;;2.35;;
34236;SDS011;20501;45.956;13.632;2023-11-18T08:18:03;3.05;;;1.90;;
34236;SDS011;20501;45.956;13.632;2023-11-18T08:20:29;3.60;;;1.90;;
34236;SDS011;20501;45.956;13.632;2023-11-18T08:22:55;3.25;;;1.83;;
34236;SDS011;20501;45.956;13.632;2023-11-18T08:25:21;4.60;;;2.10;;
34236;SDS011;20501;45.956;13.632;2023-11-18T08:27:47;3.17;;;1.98;;
34236;SDS011;20501;45.956;13.632;2023-11-18T08:30:13;4.47;;;2.00;;
34236;SDS011;20501;45.956;13.632;2023-11-18T08:32:39;6.43;;;2.13;;
34236;SDS011;20501;45.956;13.632;2023-11-18T08:35:09;4.38;;;1.80;;
34236;SDS011;20501;45.956;13.632;2023-11-18T08:37:35;2.50;;;1.70;;
34236;SDS011;20501;45.956;13.632;2023-11-18T08:40:02;4.28;;;1.90;;
34236;SDS011;20501;45.956;13.632;2023-11-18T08:42:28;8.25;;;2.20;;
34236;SDS011;20501;45.956;13.632;2023-11-18T08:44:56;2.90;;;1.88;;
34236;SDS011;20501;45.956;13.632;2023-11-18T08:47:24;3.75;;;2.17;;
34236;SDS011;20501;45.956;13.632;2023-11-18T08:49:49;5.55;;;1.77;;
34236;SDS011;20501;45.956;13.632;2023-11-18T08:52:15;6.45;;;2.30;;
34236;SDS011;20501;45.956;13.632;2023-11-18T08:54:43;5.97;;;2.30;;
34236;SDS011;20501;45.956;13.632;2023-11-18T08:57:28;6.60;;;2.45;;
34236;SDS011;20501;45.956;13.632;2023-11-18T09:00:13;5.25;;;2.00;;
34236;SDS011;20501;45.956;13.632;2023-11-18T09:03:00;2.03;;;1.60;;
34236;SDS011;20501;45.956;13.632;2023-11-18T09:05:26;5.40;;;1.70;;
34236;SDS011;20501;45.956;13.632;2023-11-18T09:07:56;4.45;;;1.75;;
34236;SDS011;20501;45.956;13.632;2023-11-18T09:10:27;4.72;;;1.92;;
34236;SDS011;20501;45.956;13.632;2023-11-18T09:12:55;5.00;;;2.22;;
34236;SDS011;20501;45.956;13.632;2023-11-18T09:15:21;2.83;;;1.67;;
34236;SDS011;20501;45.956;13.632;2023-11-18T09:17:50;3.58;;;1.65;;
34236;SDS011;20501;45.956;13.632;2023-11-18T09:20:16;5.13;;;2.20;;
34236;SDS011;20501;45.956;13.632;2023-11-18T09:22:45;3.55;;;1.65;;
34236;SDS011;20501;45.956;13.632;2023-11-18T09:25:11;4.20;;;1.53;;
34236;SDS011;20501;45.956;13.632;2023-11-18T09:27:36;1.93;;;1.47;;
34236;SDS011;20501;45.956;13.632;2023-11-18T09:30:04;3.03;;;1.52;;
34236;SDS011;20501;45.956;13.632;2023-11-18T09:32:39;3.65;;;1.65;;
34236;SDS011;20501;45.956;13.632;2023-11-18T09:35:07;3.15;;;1.88;;
34236;SDS011;20501;45.956;13.632;2023-11-18T09:37:35;3.15;;;1.80;;
34236;SDS011;20501;45.956;13.632;2023-11-18T09:40:01;3.25;;;1.48;;
34236;SDS011;20501;45.956;13.632;2023-11-18T09:42:39;6.70;;;1.73;;
34236;SDS011;20501;45.956;13.632;2023-11-18T09:45:09;4.30;;;2.17;;
34236;SDS011;20501;45.956;13.632;2023-11-18T09:47:45;2.78;;;1.98;;
34236;SDS011;20501;45.956;13.632;2023-11-18T09:50:16;6.50;;;2.05;;
34236;SDS011;20501;45.956;13.632;2023-11-18T09:52:47;4.43;;;1.40;;
34236;SDS011;20501;45.956;13.632;2023-11-18T09:55:28;5.40;;;1.80;;
34236;SDS011;20501;45.956;13.632;2023-11-18T09:58:04;3.75;;;1.70;;
34236;SDS011;20501;45.956;13.632;2023-11-18T10:00:33;4.65;;;2.15;;
34236;SDS011;20501;45.956;13.632;2023-11-18T10:03:06;2.90;;;1.70;;
34236;SDS011;20501;45.956;13.632;2023-11-18T10:05:33;3.80;;;1.75;;
34236;SDS011;20501;45.956;13.632;2023-11-18T10:08:02;2.30;;;1.77;;
34236;SDS011;20501;45.956;13.632;2023-11-18T10:10:31;4.47;;;2.03;;
34236;SDS011;20501;45.956;13.632;2023-11-18T10:13:10;2.08;;;1.65;;
34236;SDS011;20501;45.956;13.632;2023-11-18T10:15:46;3.97;;;1.70;;
34236;SDS011;20501;45.956;13.632;2023-11-18T10:18:14;2.38;;;1.52;;
34236;SDS011;20501;45.956;13.632;2023-11-18T10:20:47;7.43;;;1.63;;
34236;SDS011;20501;45.956;13.632;2023-11-18T10:23:20;1.70;;;1.27;;
34236;SDS011;20501;45.956;13.632;2023-11-18T10:25:53;2.97;;;1.83;;
34236;SDS011;20501;45.956;13.632;2023-11-18T10:30:53;3.45;;;2.15;;
34236;SDS011;20501;45.956;13.632;2023-11-18T10:33:23;4.88;;;1.77;;
34236;SDS011;20501;45.956;13.632;2023-11-18T10:35:55;5.05;;;2.65;;
34236;SDS011;20501;45.956;13.632;2023-11-18T10:38:21;6.60;;;2.83;;
34236;SDS011;20501;45.956;13.632;2023-11-18T10:40:53;4.22;;;2.60;;
34236;SDS011;20501;45.956;13.632;2023-11-18T10:43:23;8.73;;;2.78;;
34236;SDS011;20501;45.956;13.632;2023-11-18T10:46:06;7.05;;;2.58;;
34236;SDS011;20501;45.956;13.632;2023-11-18T10:48:42;6.53;;;2.15;;
34236;SDS011;20501;45.956;13.632;2023-11-18T10:51:18;6.53;;;3.70;;
34236;SDS011;20501;45.956;13.632;2023-11-18T10:53:50;7.03;;;2.60;;
34236;SDS011;20501;45.956;13.632;2023-11-18T10:56:28;5.00;;;2.90;;
34236;SDS011;20501;45.956;13.632;2023-11-18T10:58:58;4.00;;;2.37;;
34236;SDS011;20501;45.956;13.632;2023-11-18T11:03:58;3.70;;;2.33;;
34236;SDS011;20501;45.956;13.632;2023-11-18T11:06:24;5.38;;;2.25;;
34236;SDS011;20501;45.956;13.632;2023-11-18T11:08:51;4.75;;;1.58;;
34236;SDS011;20501;45.956;13.632;2023-11-18T11:11:21;3.17;;;1.90;;
34236;SDS011;20501;45.956;13.632;2023-11-18T11:13:53;2.45;;;1.85;;
34236;SDS011;20501;45.956;13.632;2023-11-18T11:16:21;2.58;;;1.75;;
34236;SDS011;20501;45.956;13.632;2023-11-18T11:18:55;4.97;;;2.25;;
34236;SDS011;20501;45.956;13.632;2023-11-18T11:21:28;4.07;;;1.80;;
34236;SDS011;20501;45.956;13.632;2023-11-18T11:32:18;3.72;;;1.00;;
34236;SDS011;20501;45.956;13.632;2023-11-18T11:34:56;1.77;;;1.05;;
34236;SDS011;20501;45.956;13.632;2023-11-18T11:37:33;3.83;;;1.30;;
34236;SDS011;20501;45.956;13.632;2023-11-18T11:40:02;1.75;;;1.02;;
34236;SDS011;20501;45.956;13.632;2023-11-18T11:42:34;2.00;;;1.30;;
34236;SDS011;20501;45.956;13.632;2023-11-18T11:45:01;1.53;;;1.00;;
34236;SDS011;20501;45.956;13.632;2023-11-18T11:47:28;2.03;;;0.90;;
34236;SDS011;20501;45.956;13.632;2023-11-18T11:50:11;1.83;;;0.98;;
34236;SDS011;20501;45.956;13.632;2023-11-18T11:52:47;3.88;;;1.55;;
34236;SDS011;20501;45.956;13.632;2023-11-18T11:55:23;4.82;;;2.50;;
34236;SDS011;20501;45.956;13.632;2023-11-18T12:00:54;4.30;;;1.80;;
34236;SDS011;20501;45.956;13.632;2023-11-18T12:03:21;8.82;;;1.98;;
34236;SDS011;20501;45.956;13.632;2023-11-18T12:05:54;4.47;;;1.38;;
34236;SDS011;20501;45.956;13.632;2023-11-18T12:08:22;7.95;;;1.85;;
34236;SDS011;20501;45.956;13.632;2023-11-18T12:13:17;2.53;;;1.15;;
34236;SDS011;20501;45.956;13.632;2023-11-18T12:18:20;5.30;;;1.30;;
34236;SDS011;20501;45.956;13.632;2023-11-18T12:20:47;2.53;;;1.40;;
34236;SDS011;20501;45.956;13.632;2023-11-18T12:23:13;6.75;;;1.42;;
34236;SDS011;20501;45.956;13.632;2023-11-18T12:25:46;2.13;;;1.42;;
34236;SDS011;20501;45.956;13.632;2023-11-18T12:28:17;4.35;;;1.38;;
34236;SDS011;20501;45.956;13.632;2023-11-18T12:33:20;1.20;;;0.90;;
34236;SDS011;20501;45.956;13.632;2023-11-18T12:47:00;1.83;;;1.25;;
34236;SDS011;20501;45.956;13.632;2023-11-18T12:49:46;4.88;;;1.13;;
34236;SDS011;20501;45.956;13.632;2023-11-18T12:52:19;2.83;;;1.48;;
34236;SDS011;20501;45.956;13.632;2023-11-18T12:57:16;3.22;;;1.98;;
34236;SDS011;20501;45.956;13.632;2023-11-18T12:59:42;3.67;;;1.77;;
34236;SDS011;20501;45.956;13.632;2023-11-18T13:02:09;5.70;;;2.45;;
34236;SDS011;20501;45.956;13.632;2023-11-18T13:04:43;3.47;;;1.80;;
34236;SDS011;20501;45.956;13.632;2023-11-18T13:07:12;5.68;;;2.33;;
34236;SDS011;20501;45.956;13.632;2023-11-18T13:09:39;6.22;;;2.42;;
34236;SDS011;20501;45.956;13.632;2023-11-18T13:12:07;4.22;;;1.67;;
34236;SDS011;20501;45.956;13.632;2023-11-18T13:14:34;8.63;;;3.03;;
34236;SDS011;20501;45.956;13.632;2023-11-18T13:19:33;9.80;;;3.03;;
34236;SDS011;20501;45.956;13.632;2023-11-18T13:22:00;7.37;;;3.20;;
34236;SDS011;20501;45.956;13.632;2023-11-18T13:24:28;6.22;;;3.15;;
34236;SDS011;20501;45.956;13.632;2023-11-18T13:26:55;5.75;;;2.28;;
34236;SDS011;20501;45.956;13.632;2023-11-18T13:29:28;4.00;;;2.28;;
34236;SDS011;20501;45.956;13.632;2023-11-18T13:31:54;5.65;;;2.05;;
34236;SDS011;20501;45.956;13.632;2023-11-18T13:34:21;2.80;;;1.88;;
34236;SDS011;20501;45.956;13.632;2023-11-18T13:36:47;4.63;;;2.10;;
34236;SDS011;20501;45.956;13.632;2023-11-18T13:39:17;4.30;;;2.33;;
34236;SDS011;20501;45.956;13.632;2023-11-18T13:41:43;5.28;;;2.65;;
34236;SDS011;20501;45.956;13.632;2023-11-18T13:44:10;4.47;;;3.20;;
34236;SDS011;20501;45.956;13.632;2023-11-18T13:46:43;6.28;;;3.17;;
34236;SDS011;20501;45.956;13.632;2023-11-18T13:49:09;8.30;;;5.82;;
34236;SDS011;20501;45.956;13.632;2023-11-18T13:51:34;19.83;;;7.55;;
34236;SDS011;20501;45.956;13.632;2023-11-18T13:54:01;18.27;;;11.05;;
34236;SDS011;20501;45.956;13.632;2023-11-18T13:56:27;17.67;;;10.20;;
34236;SDS011;20501;45.956;13.632;2023-11-18T13:58:54;10.23;;;5.88;;
34236;SDS011;20501;45.956;13.632;2023-11-18T14:01:20;12.45;;;6.35;;
34236;SDS011;20501;45.956;13.632;2023-11-18T14:03:46;7.10;;;4.27;;
34236;SDS011;20501;45.956;13.632;2023-11-18T14:06:13;7.57;;;4.15;;
34236;SDS011;20501;45.956;13.632;2023-11-18T14:08:42;5.68;;;3.50;;
34236;SDS011;20501;45.956;13.632;2023-11-18T14:11:10;5.30;;;2.95;;
34236;SDS011;20501;45.956;13.632;2023-11-18T14:13:36;5.70;;;3.35;;
34236;SDS011;20501;45.956;13.632;2023-11-18T14:16:02;6.03;;;3.55;;
34236;SDS011;20501;45.956;13.632;2023-11-18T14:18:29;11.55;;;3.70;;
34236;SDS011;20501;45.956;13.632;2023-11-18T14:20:54;6.35;;;4.30;;
34236;SDS011;20501;45.956;13.632;2023-11-18T14:23:20;14.35;;;6.80;;
34236;SDS011;20501;45.956;13.632;2023-11-18T14:25:47;14.48;;;7.88;;
34236;SDS011;20501;45.956;13.632;2023-11-18T14:28:13;9.82;;;6.32;;
34236;SDS011;20501;45.956;13.632;2023-11-18T14:30:38;11.90;;;6.30;;
34236;SDS011;20501;45.956;13.632;2023-11-18T14:33:05;8.73;;;5.70;;
34236;SDS011;20501;45.956;13.632;2023-11-18T14:35:32;10.05;;;5.22;;
34236;SDS011;20501;45.956;13.632;2023-11-18T14:37:58;12.85;;;6.10;;
34236;SDS011;20501;45.956;13.632;2023-11-18T14:42:51;14.55;;;6.45;;
34236;SDS011;20501;45.956;13.632;2023-11-18T14:45:17;18.80;;;6.75;;
34236;SDS011;20501;45.956;13.632;2023-11-18T14:47:43;11.32;;;5.45;;
34236;SDS011;20501;45.956;13.632;2023-11-18T14:50:18;12.02;;;6.35;;
34236;SDS011;20501;45.956;13.632;2023-11-18T14:52:45;13.93;;;5.68;;
34236;SDS011;20501;45.956;13.632;2023-11-18T14:55:27;11.55;;;5.68;;
34236;SDS011;20501;45.956;13.632;2023-11-18T14:57:53;13.82;;;5.50;;
34236;SDS011;20501;45.956;13.632;2023-11-18T15:00:19;15.80;;;5.68;;
34236;SDS011;20501;45.956;13.632;2023-11-18T15:02:48;11.77;;;5.63;;
34236;SDS011;20501;45.956;13.632;2023-11-18T15:05:15;23.02;;;7.07;;
34236;SDS011;20501;45.956;13.632;2023-11-18T15:07:48;15.52;;;5.70;;
34236;SDS011;20501;45.956;13.632;2023-11-18T15:10:15;10.00;;;5.38;;
34236;SDS011;20501;45.956;13.632;2023-11-18T15:12:45;12.43;;;5.22;;
34236;SDS011;20501;45.956;13.632;2023-11-18T15:15:14;12.48;;;5.90;;
34236;SDS011;20501;45.956;13.632;2023-11-18T15:17:44;9.35;;;5.18;;
34236;SDS011;20501;45.956;13.632;2023-11-18T15:20:11;12.95;;;5.88;;
34236;SDS011;20501;45.956;13.632;2023-11-18T15:25:03;14.48;;;7.32;;
34236;SDS011;20501;45.956;13.632;2023-11-18T15:27:28;25.73;;;8.98;;
34236;SDS011;20501;45.956;13.632;2023-11-18T15:29:54;18.42;;;7.85;;
34236;SDS011;20501;45.956;13.632;2023-11-18T15:32:19;15.73;;;6.55;;
34236;SDS011;20501;45.956;13.632;2023-11-18T15:34:45;25.23;;;7.45;;
34236;SDS011;20501;45.956;13.632;2023-11-18T15:37:11;26.55;;;8.43;;